Time;durP1;ratioP1;P1;durP2;ratioP2;P2;SDS_P1;SDS_P2;PMS_P1;PMS_P2;Temp;Humidity;BMP_temperature;BMP_pressure;BME280_temperature;BME280_humidity;BME280_pressure;Samples;Min_cycle;Max_cycle;Signal;HPM_P1;HPM_P2
2023/02/19 00:02:19;;;;;;;;;;;;;;;9.15;100.00;-18274.34;5001208;28;20401;-83
2023/02/19 00:04:44;;;;;;;;;;;;;;;9.16;100.00;-18274.75;4999875;28;20471;-83
2023/02/19 00:07:09;;;;;;;;;;;;;;;9.18;100.00;-18275.31;4999894;28;20302;-84
2023/02/19 00:09:34;;;;;;;;;;;;;;;9.15;100.00;-18274.47;4997941;28;19930;-83
2023/02/19 00:12:00;;;;;;;;;;;;;;;9.16;100.00;-18274.75;5002156;28;19926;-83
2023/02/19 00:14:25;;;;;;;;;;;;;;;9.16;100.00;-18274.75;5003598;28;19917;-83
2023/02/19 00:16:50;;;;;;;;;;;;;;;9.17;100.00;-18275.03;4999208;28;20295;-83
2023/02/19 00:19:16;;;;;;;;;;;;;;;9.17;100.00;-18274.88;5005117;28;19918;-84
2023/02/19 00:21:41;;;;;;;;;;;;;;;9.16;100.00;-18274.63;5002432;28;20608;-84
2023/02/19 00:24:10;;;;;;;;;;;;;;;9.16;100.00;-18274.75;5002889;28;19929;-83
2023/02/19 00:26:36;;;;;;;;;;;;;;;9.15;100.00;-18274.47;5002817;28;20303;-84
2023/02/19 00:29:02;;;;;;;;;;;;;;;9.14;100.00;-18274.19;5003955;28;19930;-84
2023/02/19 00:31:27;;;;;;;;;;;;;;;9.14;100.00;-18274.19;5003685;28;19945;-84
2023/02/19 00:33:54;;;;;;;;;;;;;;;9.13;100.00;-18273.94;5005236;28;19925;-84
2023/02/19 00:36:19;;;;;;;;;;;;;;;9.15;100.00;-18274.34;5003433;28;19957;-83
2023/02/19 00:38:45;;;;;;;;;;;;;;;9.13;100.00;-18273.94;5006078;28;19925;-84
2023/02/19 00:41:17;;;;;;;;;;;;;;;9.11;100.00;-18273.38;5010328;28;19926;-84
2023/02/19 00:43:53;;;;;;;;;;;;;;;9.12;100.00;-18273.66;5005250;28;19933;-83
2023/02/19 00:46:20;;;;;;;;;;;;;;;9.11;100.00;-18273.22;5008575;28;19965;-83
2023/02/19 00:48:45;;;;;;;;;;;;;;;9.09;100.00;-18272.81;5002695;28;19926;-83
2023/02/19 00:51:11;;;;;;;;;;;;;;;9.09;100.00;-18272.69;5004023;28;19926;-83
2023/02/19 00:53:36;;;;;;;;;;;;;;;9.08;100.00;-18272.53;5003588;28;19918;-83
2023/02/19 00:56:01;;;;;;;;;;;;;;;9.05;100.00;-18271.72;5005416;28;19926;-84
2023/02/19 00:58:27;;;;;;;;;;;;;;;9.04;100.00;-18271.44;5005035;28;19921;-84
2023/02/19 01:00:52;;;;;;;;;;;;;;;9.04;100.00;-18271.44;5005095;28;19977;-83
2023/02/19 01:03:17;;;;;;;;;;;;;;;9.05;100.00;-18271.72;5005035;28;20450;-84
2023/02/19 01:05:43;;;;;;;;;;;;;;;9.03;100.00;-18271.31;5002320;28;20595;-83
2023/02/19 01:08:08;;;;;;;;;;;;;;;9.04;100.00;-18271.44;5006611;28;19925;-83
2023/02/19 01:10:33;;;;;;;;;;;;;;;9.03;100.00;-18271.31;5003139;28;19921;-83
2023/02/19 01:12:58;;;;;;;;;;;;;;;9.02;100.00;-18270.91;5006087;28;19925;-83
2023/02/19 01:15:24;;;;;;;;;;;;;;;9.00;100.00;-18270.47;5004012;28;19933;-84
2023/02/19 01:17:49;;;;;;;;;;;;;;;8.99;100.00;-18270.22;5000026;28;21010;-83
2023/02/19 01:20:14;;;;;;;;;;;;;;;8.98;100.00;-18269.81;5005479;28;20304;-83
2023/02/19 01:22:39;;;;;;;;;;;;;;;8.97;100.00;-18269.66;5005326;28;19932;-84
2023/02/19 01:25:05;;;;;;;;;;;;;;;8.98;100.00;-18269.81;5004770;28;19922;-84
2023/02/19 01:27:30;;;;;;;;;;;;;;;8.97;100.00;-18269.66;5004009;28;20241;-84
2023/02/19 01:29:55;;;;;;;;;;;;;;;8.95;100.00;-18269.09;5006779;28;19930;-83
2023/02/19 01:32:21;;;;;;;;;;;;;;;8.95;100.00;-18268.97;5001473;28;19979;-83
2023/02/19 01:34:46;;;;;;;;;;;;;;;8.93;100.00;-18268.56;5001852;28;20559;-83
2023/02/19 01:37:11;;;;;;;;;;;;;;;8.92;100.00;-18268.16;5002413;28;20388;-83
2023/02/19 01:39:37;;;;;;;;;;;;;;;8.91;100.00;-18268.00;5000699;28;20466;-83
2023/02/19 01:42:03;;;;;;;;;;;;;;;8.91;100.00;-18267.88;5000015;28;19992;-83
2023/02/19 01:44:29;;;;;;;;;;;;;;;8.90;100.00;-18267.72;5001334;28;20343;-84
2023/02/19 01:46:56;;;;;;;;;;;;;;;8.89;100.00;-18267.47;4999551;28;19925;-83
2023/02/19 01:49:33;;;;;;;;;;;;;;;8.89;100.00;-18267.31;5000995;28;19921;-83
2023/02/19 01:52:25;;;;;;;;;;;;;;;8.89;100.00;-18267.31;5000742;28;19921;-84
2023/02/19 01:54:51;;;;;;;;;;;;;;;8.88;100.00;-18267.19;4999462;28;19945;-83
2023/02/19 01:57:22;;;;;;;;;;;;;;;8.87;100.00;-18266.78;5000688;28;19921;-83
2023/02/19 01:59:53;;;;;;;;;;;;;;;8.86;100.00;-18266.63;5001713;28;19936;-83
2023/02/19 02:02:19;;;;;;;;;;;;;;;8.86;100.00;-18266.63;5004065;28;19925;-83
2023/02/19 02:04:44;;;;;;;;;;;;;;;8.86;100.00;-18266.50;5000952;28;19917;-83
2023/02/19 02:12:37;;;;;;;;;;;;;;;8.85;100.00;-18266.22;5010638;28;19927;-83
2023/02/19 02:15:03;;;;;;;;;;;;;;;8.82;100.00;-18265.66;5002872;28;19941;-83
2023/02/19 02:17:31;;;;;;;;;;;;;;;8.81;100.00;-18265.25;5014107;28;19956;-82
2023/02/19 02:20:15;;;;;;;;;;;;;;;8.80;100.00;-18264.97;5014271;28;20310;-83
2023/02/19 02:22:50;;;;;;;;;;;;;;;8.79;100.00;-18264.72;5004850;28;19944;-83
2023/02/19 02:25:27;;;;;;;;;;;;;;;8.79;100.00;-18264.84;5009619;28;20299;-84
2023/02/19 02:27:52;;;;;;;;;;;;;;;8.80;100.00;-18265.13;5016426;28;19917;-83
2023/02/19 02:30:30;;;;;;;;;;;;;;;8.78;100.00;-18264.56;4998911;28;20398;-83
2023/02/19 02:32:55;;;;;;;;;;;;;;;8.80;100.00;-18264.97;5023371;28;20459;-84
2023/02/19 02:35:22;;;;;;;;;;;;;;;8.77;100.00;-18264.28;5006787;28;19918;-85
2023/02/19 02:37:48;;;;;;;;;;;;;;;8.78;100.00;-18264.44;5009781;28;19924;-84
2023/02/19 02:40:13;;;;;;;;;;;;;;;8.76;100.00;-18263.88;5010303;28;19917;-83
2023/02/19 02:42:39;;;;;;;;;;;;;;;8.75;100.00;-18263.75;5008667;28;19925;-84
2023/02/19 02:45:35;;;;;;;;;;;;;;;8.78;100.00;-18264.56;5012286;28;19953;-84
2023/02/19 02:48:19;;;;;;;;;;;;;;;8.77;100.00;-18264.28;5006835;28;19953;-84
2023/02/19 02:50:51;;;;;;;;;;;;;;;8.74;100.00;-18263.47;5012299;28;19929;-84
2023/02/19 02:56:21;;;;;;;;;;;;;;;8.72;100.00;-18262.91;5018256;28;20488;-84
2023/02/19 02:58:48;;;;;;;;;;;;;;;8.72;100.00;-18262.78;5010612;28;19918;-84
2023/02/19 03:04:03;;;;;;;;;;;;;;;8.69;100.00;-18261.94;5004391;28;19976;-84
2023/02/19 03:06:32;;;;;;;;;;;;;;;8.67;100.00;-18261.53;5001509;28;20021;-83
2023/02/19 03:09:06;;;;;;;;;;;;;;;8.67;100.00;-18261.53;5006096;28;20009;-84
2023/02/19 03:19:54;;;;;;;;;;;;;;;8.67;100.00;-18261.41;5007747;28;19989;-83
2023/02/19 03:22:35;;;;;;;;;;;;;;;8.66;100.00;-18261.28;5007415;28;19917;-84
2023/02/19 03:27:48;;;;;;;;;;;;;;;8.66;100.00;-18261.28;5008478;28;20787;-83
2023/02/19 03:30:16;;;;;;;;;;;;;;;8.68;100.00;-18261.69;5013797;28;19921;-84
2023/02/19 03:32:47;;;;;;;;;;;;;;;8.67;100.00;-18261.53;5007575;28;19922;-84
2023/02/19 03:35:21;;;;;;;;;;;;;;;8.67;100.00;-18261.41;5001341;28;19918;-83
2023/02/19 03:37:51;;;;;;;;;;;;;;;8.67;100.00;-18261.41;5007839;28;19917;-84
2023/02/19 03:40:17;;;;;;;;;;;;;;;8.65;100.00;-18261.00;5013722;28;19917;-83
2023/02/19 03:42:42;;;;;;;;;;;;;;;8.63;100.00;-18260.44;4997337;28;20033;-83
2023/02/19 03:45:17;;;;;;;;;;;;;;;8.62;100.00;-18260.16;4998420;28;20434;-84
2023/02/19 03:47:48;;;;;;;;;;;;;;;8.62;100.00;-18260.16;5003695;28;20004;-82
2023/02/19 03:50:18;;;;;;;;;;;;;;;8.59;100.00;-18259.47;4995230;28;19922;-84
2023/02/19 03:52:51;;;;;;;;;;;;;;;8.59;100.00;-18259.34;4994327;28;19925;-84
2023/02/19 03:55:21;;;;;;;;;;;;;;;8.63;100.00;-18260.44;5000065;28;19964;-83
2023/02/19 03:57:46;;;;;;;;;;;;;;;8.63;100.00;-18260.44;4998810;28;20406;-83
2023/02/19 04:00:12;;;;;;;;;;;;;;;8.61;100.00;-18259.75;4994039;28;19917;-83
2023/02/19 04:02:42;;;;;;;;;;;;;;;8.61;100.00;-18259.75;5003331;28;19929;-83
2023/02/19 04:05:12;;;;;;;;;;;;;;;8.60;100.00;-18259.63;4999470;28;19925;-84
2023/02/19 04:07:40;;;;;;;;;;;;;;;8.57;100.00;-18258.94;5003415;28;19918;-83
2023/02/19 04:10:06;;;;;;;;;;;;;;;8.57;100.00;-18258.78;4999675;28;19929;-84
2023/02/19 04:12:32;;;;;;;;;;;;;;;8.56;100.00;-18258.66;5003506;28;19940;-84
2023/02/19 04:15:03;;;;;;;;;;;;;;;8.54;100.00;-18257.97;4999760;28;20059;-83
2023/02/19 04:17:34;;;;;;;;;;;;;;;8.51;100.00;-18257.28;5000503;28;20309;-84
2023/02/19 04:20:02;;;;;;;;;;;;;;;8.52;100.00;-18257.41;5001376;28;19926;-84
2023/02/19 04:22:28;;;;;;;;;;;;;;;8.52;100.00;-18257.41;4996483;28;19986;-84
2023/02/19 04:24:54;;;;;;;;;;;;;;;8.51;100.00;-18257.13;4997128;28;20394;-83
2023/02/19 04:27:19;;;;;;;;;;;;;;;8.49;100.00;-18256.59;5001662;28;20379;-84
2023/02/19 04:29:44;;;;;;;;;;;;;;;8.50;100.00;-18256.88;4998922;28;19933;-84
2023/02/19 04:32:10;;;;;;;;;;;;;;;8.48;100.00;-18256.44;5002577;28;19926;-84
2023/02/19 04:34:35;;;;;;;;;;;;;;;8.47;100.00;-18256.03;4999337;28;19917;-83
2023/02/19 04:37:00;;;;;;;;;;;;;;;8.47;100.00;-18256.03;4992805;28;20013;-84
2023/02/19 04:39:26;;;;;;;;;;;;;;;8.45;100.00;-18255.47;4999050;28;19925;-84
2023/02/19 04:41:51;;;;;;;;;;;;;;;8.46;100.00;-18255.91;5000806;28;20590;-84
2023/02/19 04:44:16;;;;;;;;;;;;;;;8.45;100.00;-18255.63;5004659;28;20357;-84
2023/02/19 04:46:41;;;;;;;;;;;;;;;8.47;100.00;-18256.03;4997910;28;19917;-84
2023/02/19 04:49:06;;;;;;;;;;;;;;;8.46;100.00;-18255.91;5007658;28;19968;-84
2023/02/19 04:51:32;;;;;;;;;;;;;;;8.46;100.00;-18255.75;4998200;28;19918;-84
2023/02/19 04:53:57;;;;;;;;;;;;;;;8.46;100.00;-18255.75;4996593;28;19918;-84
2023/02/19 04:56:22;;;;;;;;;;;;;;;8.46;100.00;-18255.75;5003362;28;19928;-84
2023/02/19 04:58:47;;;;;;;;;;;;;;;8.44;100.00;-18255.22;5000525;28;20399;-84
2023/02/19 05:01:13;;;;;;;;;;;;;;;8.44;100.00;-18255.34;4998279;28;20572;-84
2023/02/19 05:03:39;;;;;;;;;;;;;;;8.44;100.00;-18255.22;5003472;28;19952;-83
2023/02/19 05:06:06;;;;;;;;;;;;;;;8.44;100.00;-18255.34;4992874;28;19918;-84
2023/02/19 05:08:31;;;;;;;;;;;;;;;8.43;100.00;-18255.06;5002263;28;19918;-84
2023/02/19 05:10:57;;;;;;;;;;;;;;;8.44;100.00;-18255.22;5000040;28;19918;-84
2023/02/19 05:13:23;;;;;;;;;;;;;;;8.43;100.00;-18254.94;5004932;28;19917;-84
2023/02/19 05:16:09;;;;;;;;;;;;;;;8.43;100.00;-18254.94;5005729;28;20477;-83
2023/02/19 05:18:34;;;;;;;;;;;;;;;8.42;100.00;-18254.78;4997290;28;19940;-84
2023/02/19 05:20:59;;;;;;;;;;;;;;;8.42;100.00;-18254.66;4997955;28;19926;-84
2023/02/19 05:23:25;;;;;;;;;;;;;;;8.41;100.00;-18254.38;5005508;28;19960;-83
2023/02/19 05:25:50;;;;;;;;;;;;;;;8.41;100.00;-18254.53;5011214;28;19926;-83
2023/02/19 05:28:16;;;;;;;;;;;;;;;8.40;100.00;-18254.09;5020756;28;19918;-83
2023/02/19 05:30:41;;;;;;;;;;;;;;;8.38;100.00;-18253.69;5017802;28;19931;-83
2023/02/19 05:33:07;;;;;;;;;;;;;;;8.38;100.00;-18253.56;5016593;28;19921;-84
2023/02/19 05:35:32;;;;;;;;;;;;;;;8.39;100.00;-18253.84;5008407;28;19924;-83
2023/02/19 05:37:57;;;;;;;;;;;;;;;8.38;100.00;-18253.56;5003432;28;19981;-83
2023/02/19 05:40:22;;;;;;;;;;;;;;;8.38;100.00;-18253.56;5009000;28;19929;-82
2023/02/19 05:42:47;;;;;;;;;;;;;;;8.36;100.00;-18253.13;5001688;28;19926;-84
2023/02/19 05:45:13;;;;;;;;;;;;;;;8.36;100.00;-18253.28;5009428;28;19941;-83
2023/02/19 05:47:38;;;;;;;;;;;;;;;8.35;100.00;-18253.00;5005690;28;19926;-83
2023/02/19 05:50:03;;;;;;;;;;;;;;;8.35;100.00;-18252.88;5009023;28;19929;-83
2023/02/19 05:52:29;;;;;;;;;;;;;;;8.34;100.00;-18252.72;5006922;28;19964;-83
2023/02/19 05:54:54;;;;;;;;;;;;;;;8.34;100.00;-18252.59;4997550;28;19921;-83
2023/02/19 05:57:20;;;;;;;;;;;;;;;8.32;100.00;-18252.03;5005970;28;19924;-83
2023/02/19 05:59:45;;;;;;;;;;;;;;;8.30;100.00;-18251.50;5009103;28;19918;-83
2023/02/19 06:02:10;;;;;;;;;;;;;;;8.31;100.00;-18251.75;5008598;28;19926;-83
2023/02/19 06:04:36;;;;;;;;;;;;;;;8.30;100.00;-18251.50;5007583;28;20397;-83
2023/02/19 06:07:01;;;;;;;;;;;;;;;8.31;100.00;-18251.75;4998378;28;19949;-83
2023/02/19 06:09:26;;;;;;;;;;;;;;;8.29;100.00;-18251.22;5004652;28;19928;-83
2023/02/19 06:11:51;;;;;;;;;;;;;;;8.28;100.00;-18251.06;5000883;28;19963;-83
2023/02/19 06:14:17;;;;;;;;;;;;;;;8.26;100.00;-18250.53;5008468;28;19961;-83
2023/02/19 06:16:42;;;;;;;;;;;;;;;8.24;100.00;-18249.97;5004133;28;19917;-82
2023/02/19 06:19:07;;;;;;;;;;;;;;;8.23;100.00;-18249.69;5006371;28;19921;-83
2023/02/19 06:21:32;;;;;;;;;;;;;;;8.23;100.00;-18249.69;4998592;28;19917;-82
2023/02/19 06:23:58;;;;;;;;;;;;;;;8.21;100.00;-18249.16;5000858;28;19921;-83
2023/02/19 06:26:23;;;;;;;;;;;;;;;8.21;100.00;-18249.00;5006674;28;19928;-83
2023/02/19 06:28:49;;;;;;;;;;;;;;;8.18;100.00;-18248.31;5006000;28;19922;-82
2023/02/19 06:31:15;;;;;;;;;;;;;;;8.19;100.00;-18248.59;4998524;28;20276;-83
2023/02/19 06:33:41;;;;;;;;;;;;;;;8.17;100.00;-18248.03;5005494;28;19924;-83
2023/02/19 06:36:07;;;;;;;;;;;;;;;8.16;100.00;-18247.78;5000895;28;19926;-83
2023/02/19 06:38:32;;;;;;;;;;;;;;;8.16;100.00;-18247.78;5005207;28;19963;-83
2023/02/19 06:41:01;;;;;;;;;;;;;;;8.14;100.00;-18247.34;5002349;28;21801;-83
2023/02/19 06:43:27;;;;;;;;;;;;;;;8.14;100.00;-18247.34;5001917;28;19957;-83
2023/02/19 06:45:52;;;;;;;;;;;;;;;8.13;100.00;-18246.94;5001097;28;20652;-83
2023/02/19 06:48:17;;;;;;;;;;;;;;;8.13;100.00;-18246.94;4999876;28;19980;-83
2023/02/19 06:50:43;;;;;;;;;;;;;;;8.14;100.00;-18247.22;4995905;28;20564;-82
2023/02/19 06:53:10;;;;;;;;;;;;;;;8.12;100.00;-18246.66;4996570;28;20076;-83
2023/02/19 06:55:35;;;;;;;;;;;;;;;8.11;100.00;-18246.38;5000465;28;19921;-81
2023/02/19 06:58:01;;;;;;;;;;;;;;;8.08;100.00;-18245.69;5006244;28;19933;-83
2023/02/19 07:00:26;;;;;;;;;;;;;;;8.08;100.00;-18245.56;5004358;28;19917;-83
2023/02/19 07:02:55;;;;;;;;;;;;;;;8.07;100.00;-18245.44;5005075;28;19921;-82
2023/02/19 07:05:20;;;;;;;;;;;;;;;8.06;100.00;-18245.03;5007165;28;19922;-82
2023/02/19 07:07:46;;;;;;;;;;;;;;;8.06;100.00;-18245.16;5006415;28;20383;-83
2023/02/19 07:10:11;;;;;;;;;;;;;;;8.06;100.00;-18245.03;5004671;28;19921;-83
2023/02/19 07:12:36;;;;;;;;;;;;;;;8.05;100.00;-18244.75;4997756;28;20481;-82
2023/02/19 07:15:08;;;;;;;;;;;;;;;8.05;100.00;-18244.88;5020574;28;19918;-83
2023/02/19 07:17:39;;;;;;;;;;;;;;;8.05;100.00;-18244.75;4976240;28;19922;-82
2023/02/19 07:20:04;;;;;;;;;;;;;;;8.04;100.00;-18244.47;4957978;28;20013;-83
2023/02/19 07:22:29;;;;;;;;;;;;;;;8.03;100.00;-18244.31;4955967;28;20017;-83
2023/02/19 07:24:55;;;;;;;;;;;;;;;8.04;100.00;-18244.47;4954036;28;20408;-83
2023/02/19 07:27:20;;;;;;;;;;;;;;;8.03;100.00;-18244.31;4948415;28;20434;-83
2023/02/19 07:29:46;;;;;;;;;;;;;;;8.04;100.00;-18244.59;4946539;28;19954;-83
2023/02/19 07:32:11;;;;;;;;;;;;;;;8.06;100.00;-18245.03;4958416;28;19949;-83
2023/02/19 07:34:36;;;;;;;;;;;;;;;8.05;100.00;-18244.88;4947117;28;19921;-83
2023/02/19 07:37:01;;;;;;;;;;;;;;;8.02;100.00;-18244.06;4955640;28;19922;-83
2023/02/19 07:39:27;;;;;;;;;;;;;;;8.00;100.00;-18243.50;4956493;28;19919;-82
2023/02/19 07:41:52;;;;;;;;;;;;;;;8.00;100.00;-18243.50;4949018;28;19922;-84
2023/02/19 07:44:17;;;;;;;;;;;;;;;8.00;100.00;-18243.50;4985134;28;19936;-84
2023/02/19 07:46:43;;;;;;;;;;;;;;;8.00;100.00;-18243.38;5003821;28;19924;-83
2023/02/19 07:49:08;;;;;;;;;;;;;;;7.99;100.00;-18243.09;5005439;28;19934;-83
2023/02/19 07:51:33;;;;;;;;;;;;;;;7.98;100.00;-18242.94;5007927;28;19917;-82
2023/02/19 07:53:58;;;;;;;;;;;;;;;8.00;100.00;-18243.50;5003969;28;19921;-84
2023/02/19 07:56:24;;;;;;;;;;;;;;;7.99;100.00;-18243.22;5000046;28;19926;-84
2023/02/19 07:58:49;;;;;;;;;;;;;;;7.98;100.00;-18242.94;4997014;28;19917;-83
2023/02/19 08:02:58;;;;;;;;;;;;;;;7.98;100.00;-18242.81;5004891;28;19917;-84
2023/02/19 08:04:04;;;;;;;;;;;;;;;7.98;100.00;-18242.81;4998632;28;19925;-84
2023/02/19 08:06:29;;;;;;;;;;;;;;;7.98;100.00;-18242.81;5006036;28;19921;-83
2023/02/19 08:08:56;;;;;;;;;;;;;;;7.98;100.00;-18242.81;5009304;28;19917;-84
2023/02/19 08:14:05;;;;;;;;;;;;;;;7.98;100.00;-18242.94;5007561;28;19972;-83
2023/02/19 08:16:30;;;;;;;;;;;;;;;7.99;100.00;-18243.09;4988805;28;19918;-82
2023/02/19 08:18:55;;;;;;;;;;;;;;;7.99;100.00;-18243.09;5004722;28;19917;-83
2023/02/19 08:21:20;;;;;;;;;;;;;;;7.98;100.00;-18242.94;5001318;28;20012;-83
2023/02/19 08:23:46;;;;;;;;;;;;;;;7.99;100.00;-18243.22;5002917;28;19979;-83
2023/02/19 08:26:11;;;;;;;;;;;;;;;7.98;100.00;-18242.81;5004604;28;19924;-83
2023/02/19 08:28:37;;;;;;;;;;;;;;;7.99;100.00;-18243.09;5008859;28;20008;-83
2023/02/19 08:31:03;;;;;;;;;;;;;;;7.97;100.00;-18242.53;5002074;28;20000;-83
2023/02/19 08:33:29;;;;;;;;;;;;;;;7.95;100.00;-18242.00;4998878;28;19922;-84
2023/02/19 08:35:54;;;;;;;;;;;;;;;7.94;100.00;-18241.72;5002645;28;19918;-83
2023/02/19 08:38:20;;;;;;;;;;;;;;;7.95;100.00;-18242.00;5000770;28;19921;-82
2023/02/19 08:40:45;;;;;;;;;;;;;;;7.93;100.00;-18241.56;5007015;28;19917;-82
2023/02/19 08:43:12;;;;;;;;;;;;;;;7.91;100.00;-18241.16;5001970;28;19950;-83
2023/02/19 08:45:39;;;;;;;;;;;;;;;7.94;100.00;-18241.84;4995710;28;19950;-83
2023/02/19 08:48:04;;;;;;;;;;;;;;;7.93;100.00;-18241.44;5003056;28;20054;-83
2023/02/19 08:50:30;;;;;;;;;;;;;;;7.94;100.00;-18241.72;5008464;28;20015;-83
2023/02/19 08:52:55;;;;;;;;;;;;;;;7.95;100.00;-18242.00;5003687;28;19917;-83
2023/02/19 08:55:20;;;;;;;;;;;;;;;7.93;100.00;-18241.44;5002341;28;19922;-84
2023/02/19 08:57:46;;;;;;;;;;;;;;;7.93;100.00;-18241.44;4999507;28;19940;-83
2023/02/19 09:00:11;;;;;;;;;;;;;;;7.91;100.00;-18241.16;5004674;28;19928;-82
2023/02/19 09:02:36;;;;;;;;;;;;;;;7.88;100.00;-18240.34;5013034;28;19953;-82
2023/02/19 09:05:02;;;;;;;;;;;;;;;7.77;100.00;-18237.16;5013374;28;19917;-83
2023/02/19 09:07:27;;;;;;;;;;;;;;;7.74;100.00;-18236.34;5013093;28;20357;-82
2023/02/19 09:09:52;;;;;;;;;;;;;;;7.52;100.00;-18230.56;5003684;28;19971;-82
2023/02/19 09:12:18;;;;;;;;;;;;;;;7.09;100.00;-18218.97;5007619;28;19929;-82
2023/02/19 09:14:43;;;;;;;;;;;;;;;6.99;100.00;-18216.38;5011515;28;19917;-83
2023/02/19 09:17:08;;;;;;;;;;;;;;;6.98;100.00;-18215.94;5009306;28;20299;-82
2023/02/19 09:19:34;;;;;;;;;;;;;;;6.86;100.00;-18212.66;5007988;28;19932;-83
2023/02/19 09:22:00;;;;;;;;;;;;;;;6.64;100.00;-18206.72;5004930;28;19922;-82
2023/02/19 09:24:25;;;;;;;;;;;;;;;6.64;100.00;-18206.72;5009154;28;19921;-82
2023/02/19 09:26:51;;;;;;;;;;;;;;;6.60;100.00;-18205.75;5002949;28;19921;-82
2023/02/19 09:29:17;;;;;;;;;;;;;;;6.64;100.00;-18206.72;5011753;28;21312;-83
2023/02/19 09:31:42;;;;;;;;;;;;;;;6.58;100.00;-18205.06;5000317;28;19918;-83
2023/02/19 09:34:07;;;;;;;;;;;;;;;6.65;100.00;-18207.13;5004920;28;19929;-82
2023/02/19 09:36:33;;;;;;;;;;;;;;;6.83;100.00;-18211.94;5005972;28;19921;-82
2023/02/19 09:38:59;;;;;;;;;;;;;;;6.83;100.00;-18211.94;4993619;28;19953;-82
2023/02/19 09:41:24;;;;;;;;;;;;;;;6.79;100.00;-18210.84;5002544;28;19918;-83
2023/02/19 09:43:50;;;;;;;;;;;;;;;6.67;100.00;-18207.53;5008550;28;20398;-82
2023/02/19 09:46:27;;;;;;;;;;;;;;;6.64;100.00;-18206.72;4998825;28;19929;-84
2023/02/19 09:48:54;;;;;;;;;;;;;;;6.71;100.00;-18208.66;5008902;28;20004;-83
2023/02/19 09:51:20;;;;;;;;;;;;;;;6.70;100.00;-18208.38;5002535;28;19917;-84
2023/02/19 09:53:49;;;;;;;;;;;;;;;6.66;100.00;-18207.41;5007145;28;19921;-82
2023/02/19 09:56:15;;;;;;;;;;;;;;;6.61;100.00;-18205.88;5012556;28;19917;-83
2023/02/19 09:58:45;;;;;;;;;;;;;;;6.57;100.00;-18204.78;4998935;28;20284;-83
2023/02/19 10:01:10;;;;;;;;;;;;;;;6.60;100.00;-18205.63;5002343;28;19918;-82
2023/02/19 10:03:40;;;;;;;;;;;;;;;6.55;100.00;-18204.50;5006453;28;19918;-83
2023/02/19 10:06:06;;;;;;;;;;;;;;;6.54;100.00;-18204.09;5006757;28;19976;-83
2023/02/19 10:08:43;;;;;;;;;;;;;;;6.54;100.00;-18204.22;5005286;28;19925;-83
2023/02/19 10:11:11;;;;;;;;;;;;;;;6.51;100.00;-18203.41;5010844;28;19925;-83
2023/02/19 10:13:41;;;;;;;;;;;;;;;6.64;100.00;-18206.72;5003169;28;19940;-83
2023/02/19 10:16:11;;;;;;;;;;;;;;;6.66;100.00;-18207.28;4998082;28;19924;-83
2023/02/19 10:18:38;;;;;;;;;;;;;;;6.65;100.00;-18207.00;5015679;28;20022;-83
2023/02/19 10:21:04;;;;;;;;;;;;;;;6.54;100.00;-18204.22;4999614;28;20003;-83
2023/02/19 10:23:30;;;;;;;;;;;;;;;6.55;100.00;-18204.50;5009036;28;19926;-83
2023/02/19 10:25:56;;;;;;;;;;;;;;;6.64;100.00;-18206.72;5007499;28;19918;-83
2023/02/19 10:28:29;;;;;;;;;;;;;;;6.77;100.00;-18210.31;5004552;28;21564;-83
2023/02/19 10:30:56;;;;;;;;;;;;;;;6.75;100.00;-18209.75;5026535;28;19928;-82
2023/02/19 10:33:22;;;;;;;;;;;;;;;6.76;100.00;-18210.03;5026612;28;19924;-82
2023/02/19 10:35:50;;;;;;;;;;;;;;;6.79;100.00;-18210.84;5020356;28;19917;-83
2023/02/19 10:38:16;;;;;;;;;;;;;;;6.85;100.00;-18212.50;5026291;28;20368;-84
2023/02/19 10:40:45;;;;;;;;;;;;;;;6.88;100.00;-18213.19;5007404;28;20008;-84
2023/02/19 10:43:18;;;;;;;;;;;;;;;7.01;100.00;-18216.91;5004099;28;20477;-84
2023/02/19 10:45:47;;;;;;;;;;;;;;;7.01;100.00;-18216.91;5006358;28;20281;-83
2023/02/19 10:48:29;;;;;;;;;;;;;;;6.90;100.00;-18213.75;5024983;28;19925;-83
2023/02/19 10:50:58;;;;;;;;;;;;;;;6.89;100.00;-18213.59;5025715;28;20345;-83
2023/02/19 10:53:35;;;;;;;;;;;;;;;6.92;100.00;-18214.44;5026303;28;19956;-83
2023/02/19 10:56:11;;;;;;;;;;;;;;;6.81;100.00;-18211.41;5004701;28;19921;-83
2023/02/19 10:58:39;;;;;;;;;;;;;;;6.75;100.00;-18209.88;4996988;28;20017;-83
2023/02/19 11:01:18;;;;;;;;;;;;;;;6.76;100.00;-18210.16;5001856;28;19948;-83
2023/02/19 11:03:44;;;;;;;;;;;;;;;6.87;100.00;-18213.06;5001815;28;19925;-83
2023/02/19 11:06:10;;;;;;;;;;;;;;;6.71;100.00;-18208.66;5009455;28;19933;-84
2023/02/19 11:08:54;;;;;;;;;;;;;;;6.78;100.00;-18210.72;5007692;28;19921;-84
2023/02/19 11:11:32;;;;;;;;;;;;;;;6.90;100.00;-18213.88;5000448;28;19933;-84
2023/02/19 11:13:59;;;;;;;;;;;;;;;6.87;100.00;-18213.06;5003153;28;19921;-84
2023/02/19 11:16:36;;;;;;;;;;;;;;;6.84;100.00;-18212.22;5012675;28;19918;-84
2023/02/19 11:19:24;;;;;;;;;;;;;;;6.93;100.00;-18214.72;5010916;28;20176;-84
2023/02/19 11:21:50;;;;;;;;;;;;;;;7.02;100.00;-18217.06;4992161;28;20403;-84
2023/02/19 11:24:21;;;;;;;;;;;;;;;6.91;100.00;-18214.03;5002412;28;19917;-84
2023/02/19 11:26:47;;;;;;;;;;;;;;;6.92;100.00;-18214.44;4997587;28;20445;-83
2023/02/19 11:29:18;;;;;;;;;;;;;;;6.85;100.00;-18212.38;5001963;28;19926;-83
2023/02/19 11:31:45;;;;;;;;;;;;;;;6.83;100.00;-18211.94;4996119;28;19922;-84
2023/02/19 11:34:13;;;;;;;;;;;;;;;6.78;100.00;-18210.72;5008009;28;19922;-83
2023/02/19 11:36:39;;;;;;;;;;;;;;;6.73;100.00;-18209.19;4995048;28;20405;-83
2023/02/19 11:39:10;;;;;;;;;;;;;;;6.64;100.00;-18206.72;5004584;28;19924;-83
2023/02/19 11:41:46;;;;;;;;;;;;;;;6.64;100.00;-18206.84;5003437;28;19925;-83
2023/02/19 11:44:24;;;;;;;;;;;;;;;6.70;100.00;-18208.38;5005568;28;19917;-83
2023/02/19 11:46:52;;;;;;;;;;;;;;;6.88;100.00;-18213.19;5009616;28;19929;-83
2023/02/19 11:49:24;;;;;;;;;;;;;;;6.82;100.00;-18211.53;5006517;28;20410;-84
2023/02/19 11:51:59;;;;;;;;;;;;;;;6.62;100.00;-18206.16;4990803;28;19918;-84
2023/02/19 11:54:33;;;;;;;;;;;;;;;6.66;100.00;-18207.41;5009826;28;19922;-83
2023/02/19 11:57:07;;;;;;;;;;;;;;;6.84;100.00;-18212.22;4993968;28;19941;-83
2023/02/19 11:59:55;;;;;;;;;;;;;;;6.98;100.00;-18216.09;4995640;28;19922;-83
2023/02/19 12:02:48;;;;;;;;;;;;;;;7.06;100.00;-18218.03;4973894;28;19924;-83
2023/02/19 12:05:18;;;;;;;;;;;;;;;7.07;100.00;-18218.28;5020795;28;20419;-84
2023/02/19 12:08:06;;;;;;;;;;;;;;;7.14;100.00;-18220.38;5009422;28;19928;-84
2023/02/19 12:10:49;;;;;;;;;;;;;;;6.95;100.00;-18215.25;5002269;28;19922;-84
2023/02/19 12:13:39;;;;;;;;;;;;;;;7.12;100.00;-18219.66;5024960;28;20406;-84
2023/02/19 12:16:10;;;;;;;;;;;;;;;7.08;100.00;-18218.56;5006921;28;19928;-83
2023/02/19 12:18:44;;;;;;;;;;;;;;;7.15;100.00;-18220.50;5010713;28;19917;-84
2023/02/19 12:21:33;;;;;;;;;;;;;;;7.05;100.00;-18217.75;5007280;28;20284;-83
2023/02/19 12:24:07;;;;;;;;;;;;;;;7.05;100.00;-18217.88;4992742;28;19977;-84
2023/02/19 12:26:53;;;;;;;;;;;;;;;6.95;100.00;-18215.13;5005456;28;20414;-83
2023/02/19 12:29:21;;;;;;;;;;;;;;;6.91;100.00;-18214.03;4983612;28;19932;-84
2023/02/19 12:31:55;;;;;;;;;;;;;;;6.94;100.00;-18215.00;5007188;28;20517;-83
2023/02/19 12:34:39;;;;;;;;;;;;;;;7.04;100.00;-18217.47;5007080;28;19967;-84
2023/02/19 12:37:25;;;;;;;;;;;;;;;6.99;100.00;-18216.38;5006690;28;19988;-84
2023/02/19 12:39:50;;;;;;;;;;;;;;;7.00;100.00;-18216.50;5008787;28;20005;-83
2023/02/19 12:42:34;;;;;;;;;;;;;;;6.96;100.00;-18215.53;5004596;28;19967;-84
2023/02/19 12:45:03;;;;;;;;;;;;;;;7.01;100.00;-18216.91;5008472;28;19944;-83
2023/02/19 12:47:32;;;;;;;;;;;;;;;6.93;100.00;-18214.72;5014140;28;20444;-84
2023/02/19 12:50:02;;;;;;;;;;;;;;;7.03;100.00;-18217.19;5010570;28;19933;-84
2023/02/19 12:52:33;;;;;;;;;;;;;;;7.16;100.00;-18220.78;5011326;28;20346;-84
2023/02/19 12:55:04;;;;;;;;;;;;;;;7.03;100.00;-18217.19;5012897;28;20064;-83
2023/02/19 12:57:32;;;;;;;;;;;;;;;7.24;100.00;-18223.13;5001834;28;20606;-83
2023/02/19 13:00:06;;;;;;;;;;;;;;;7.35;100.00;-18225.88;5005877;28;20006;-84
2023/02/19 13:02:44;;;;;;;;;;;;;;;7.20;100.00;-18221.88;5008675;28;19940;-84
2023/02/19 13:05:19;;;;;;;;;;;;;;;7.03;100.00;-18217.19;5018056;28;20368;-84
2023/02/19 13:07:59;;;;;;;;;;;;;;;7.04;100.00;-18217.47;5000269;28;19917;-83